Pagrindinis puslapis
METAR-TAF:

METAR-TAF

Oro uostai :

Astrachanė, Rusija

platuma: 46-17N, ilguma: 048-00-23E, Aukštis: 0 m

Dabartinis oras

Ataskaita buvo paskelbta 36 minutes, ne 08:00 UTC
Vėjas 8 kt iš Rytų, svyruoja nuo Rytų/Šiaurės Rytų ir Pietų/Pietryčių
Temperatūra 24°C
Drėgmė 34%
Slėgis 1019 hPa
Matomumas 10 km arba daugiau
nėra debesų žemiau 1500 m ir nėra kamuolinių lietaus debesų

METAR: URWA 250800Z 10004MPS 070V150 CAVOK 24/07 Q1019 R09/010070 NOSIG RMK QFE766/1022

Laikas: 12:36 (08:36 UTC)

Prognozė

Ataskaita buvo paskelbta 38 minutes, ne 07:58 UTC
Prognozė galioja nuo 25 metu 09 UTC su 25 metu 18 UTC
Vėjas 6 kt iš Rytų/Pietryčių su gūsio iki 19 kt
Matomumas: 6000 m
Laikinai
nuo 25 metu 09 UTC su 25 metu 15 UTC
Vėjas 10 kt iš Rytų su gūsio iki 21 kt

TAF: URWA 250758Z 2509/2518 12003G10MPS 6000 NSC TEMPO 2509/2515 09005G11MPS

Orai ataskaitas ir orų prognozės (METAR, TAF).

turimą stotys yra geltonos ir raudonos taškus žemėlapyje.

Perkelti pele per norėdami pamatyti stoties vardą.

Tada spustelėkite, norėdami matyti oro stebėjimo ir prognozės.

Norėdami pakeisti žemėlapį: spustelėkite ant žalios mygtukų su juodo kryžiaus žemyn,; žalią mygtuką su brūkšneliu, jei norite nutolinti; arba žalių rodyklių gretimoms žemėlapius.


METAR-TAF: